createdAt,value
2023-08-08T00:02:22.143Z,11.20
2023-08-08T00:05:10.877Z,7.80
2023-08-08T00:07:59.095Z,12.35
2023-08-08T00:10:47.194Z,9.68
2023-08-08T00:13:35.361Z,9.70
2023-08-08T00:16:23.543Z,7.65
2023-08-08T00:19:14.747Z,8.02
2023-08-08T00:22:02.905Z,8.88
2023-08-08T00:24:51.076Z,8.07
2023-08-08T00:27:43.431Z,6.55
2023-08-08T00:30:33.239Z,10.23
2023-08-08T00:33:21.404Z,8.52
2023-08-08T00:36:09.732Z,6.07
2023-08-08T00:38:57.887Z,11.15
2023-08-08T00:41:46.134Z,8.68
2023-08-08T00:47:22.165Z,7.03
2023-08-08T00:53:02.305Z,10.82
2023-08-08T00:55:50.780Z,7.63
2023-08-08T00:58:39.007Z,8.82
2023-08-08T01:04:15.578Z,8.07
2023-08-08T01:07:12.708Z,10.27
2023-08-08T01:10:08.571Z,12.05
2023-08-08T01:13:05.950Z,11.48
2023-08-08T01:15:57.641Z,9.23
2023-08-08T01:18:50.266Z,6.15
2023-08-08T01:21:42.408Z,6.93
2023-08-08T01:24:34.238Z,9.40
2023-08-08T01:27:22.598Z,9.65
2023-08-08T01:30:12.129Z,9.18
2023-08-08T01:33:00.225Z,7.43
2023-08-08T01:36:04.879Z,9.85
2023-08-08T01:38:56.859Z,10.35
2023-08-08T01:41:48.451Z,10.43
2023-08-08T01:44:37.345Z,10.40
2023-08-08T01:47:25.545Z,10.55
2023-08-08T01:50:13.615Z,5.88
2023-08-08T01:53:03.040Z,7.97
2023-08-08T01:55:53.609Z,11.93
2023-08-08T01:58:41.670Z,9.05
2023-08-08T02:01:29.839Z,9.13
2023-08-08T02:03:58.030Z,9.80
2023-08-08T02:06:46.193Z,9.18
2023-08-08T02:09:34.337Z,9.43
2023-08-08T02:12:22.448Z,8.20
2023-08-08T02:15:10.940Z,8.20
2023-08-08T02:17:59.078Z,10.63
2023-08-08T02:20:52.832Z,9.27
2023-08-08T02:23:41.009Z,10.00
2023-08-08T02:29:16.910Z,9.82
2023-08-08T02:32:05.433Z,8.32
2023-08-08T02:34:53.526Z,10.05
2023-08-08T02:37:41.722Z,6.75
2023-08-08T02:40:29.826Z,9.27
2023-08-08T02:43:17.965Z,10.88
2023-08-08T02:46:06.137Z,11.13
2023-08-08T02:48:54.279Z,8.60
2023-08-08T02:51:42.391Z,9.93
2023-08-08T02:54:30.598Z,9.25
2023-08-08T02:57:19.149Z,8.93
2023-08-08T03:00:09.464Z,12.43
2023-08-08T03:02:57.980Z,9.45
2023-08-08T03:05:47.998Z,15.77
2023-08-08T03:08:36.244Z,7.07
2023-08-08T03:14:12.370Z,10.70
2023-08-08T03:19:48.294Z,6.65
2023-08-08T03:22:36.625Z,8.90
2023-08-08T03:28:12.537Z,11.35
2023-08-08T03:33:49.209Z,11.07
2023-08-08T03:36:37.233Z,9.15
2023-08-08T03:39:25.576Z,8.50
2023-08-08T03:42:13.659Z,13.65
2023-08-08T03:45:01.841Z,9.55
2023-08-08T03:47:49.967Z,14.55
2023-08-08T03:50:41.084Z,8.07
2023-08-08T03:53:29.207Z,12.82
2023-08-08T03:56:17.423Z,13.88
2023-08-08T03:59:05.553Z,10.02
2023-08-08T04:01:53.715Z,10.25
2023-08-08T04:04:41.916Z,7.72
2023-08-08T04:07:30.056Z,12.38
2023-08-08T04:10:18.333Z,7.60
2023-08-08T04:15:54.407Z,7.50
2023-08-08T04:18:42.526Z,13.30
2023-08-08T04:21:33.412Z,11.98
2023-08-08T04:24:21.530Z,10.85
2023-08-08T04:27:09.736Z,10.98
2023-08-08T04:29:58.003Z,8.85
2023-08-08T04:35:34.181Z,9.43
2023-08-08T04:38:22.417Z,6.70
2023-08-08T04:43:58.447Z,7.78
2023-08-08T04:46:46.606Z,11.27
2023-08-08T04:49:34.706Z,7.30
2023-08-08T04:52:22.903Z,13.25
2023-08-08T04:55:12.583Z,9.52
2023-08-08T04:58:00.918Z,11.82
2023-08-08T05:03:36.968Z,8.27
2023-08-08T05:06:25.061Z,7.25
2023-08-08T05:09:14.467Z,10.38
2023-08-08T05:12:02.864Z,8.45
2023-08-08T05:14:50.817Z,9.55
2023-08-08T05:17:39.179Z,7.22
2023-08-08T05:23:15.272Z,7.22
2023-08-08T05:28:44.046Z,7.28
2023-08-08T05:31:31.484Z,7.10
2023-08-08T05:34:19.627Z,8.18
2023-08-08T05:37:10.694Z,7.75
2023-08-08T05:39:40.836Z,6.90
2023-08-08T05:42:20.710Z,9.25
2023-08-08T05:45:00.417Z,8.35
2023-08-08T05:47:40.014Z,7.15
2023-08-08T05:50:20.691Z,9.82
2023-08-08T05:53:00.342Z,9.38
2023-08-08T05:55:42.980Z,4.82
2023-08-08T05:58:23.503Z,6.35
2023-08-08T06:01:03.070Z,6.00
2023-08-08T06:03:43.749Z,8.38
2023-08-08T06:06:23.338Z,6.72
2023-08-08T06:09:03.182Z,3.95
2023-08-08T06:11:42.719Z,4.97
2023-08-08T06:14:20.614Z,6.70
2023-08-08T06:16:59.800Z,5.32
2023-08-08T06:19:38.134Z,9.02
2023-08-08T06:22:18.048Z,4.75
2023-08-08T06:24:57.728Z,7.80
2023-08-08T06:27:39.667Z,5.90
2023-08-08T06:30:19.430Z,4.15
2023-08-08T06:32:58.953Z,6.43
2023-08-08T06:35:41.692Z,4.60
2023-08-08T06:38:21.339Z,4.65
2023-08-08T06:41:01.374Z,5.47
2023-08-08T06:43:42.052Z,5.15
2023-08-08T06:46:21.959Z,3.65
2023-08-08T06:49:02.598Z,6.88
2023-08-08T06:51:42.053Z,3.80
2023-08-08T06:54:21.767Z,5.15
2023-08-08T06:57:02.663Z,4.20
2023-08-08T06:59:42.875Z,3.08
2023-08-08T07:02:24.909Z,3.13
2023-08-08T07:04:54.062Z,3.20
2023-08-08T07:07:34.635Z,5.07
2023-08-08T07:10:14.521Z,3.60
2023-08-08T07:12:54.164Z,3.80
2023-08-08T07:15:33.970Z,3.05
2023-08-08T07:18:13.661Z,3.00
2023-08-08T07:21:02.897Z,2.90
2023-08-08T07:23:42.554Z,3.38
2023-08-08T07:26:23.547Z,3.08
2023-08-08T07:29:07.251Z,5.18
2023-08-08T07:31:46.996Z,4.15
2023-08-08T07:34:26.511Z,4.78
2023-08-08T07:37:06.372Z,2.03
2023-08-08T07:39:55.308Z,4.68
2023-08-08T07:42:44.581Z,4.95
2023-08-08T07:45:32.763Z,2.90
2023-08-08T07:48:13.928Z,3.38
2023-08-08T07:50:53.457Z,3.58
2023-08-08T07:53:35.051Z,2.08
2023-08-08T07:56:14.695Z,3.60
2023-08-08T07:58:57.364Z,2.75
2023-08-08T08:01:37.102Z,3.33
2023-08-08T08:04:24.039Z,4.82
2023-08-08T08:07:03.926Z,2.63
2023-08-08T08:09:43.948Z,3.60
2023-08-08T08:12:23.577Z,2.05
2023-08-08T08:15:03.703Z,3.30
2023-08-08T08:17:43.571Z,6.30
2023-08-08T08:20:35.376Z,4.78
2023-08-08T08:23:15.688Z,4.45
2023-08-08T08:25:55.303Z,2.13
2023-08-08T08:28:35.075Z,2.10
2023-08-08T08:31:24.482Z,6.60
2023-08-08T08:34:12.577Z,2.70
2023-08-08T08:36:59.972Z,2.15
2023-08-08T08:39:48.448Z,3.20
2023-08-08T08:42:37.552Z,2.38
2023-08-08T08:45:24.835Z,1.25
2023-08-08T08:48:04.853Z,3.35
2023-08-08T08:50:54.822Z,2.05
2023-08-08T08:53:36.283Z,3.88
2023-08-08T08:56:20.160Z,1.77
2023-08-08T08:58:59.987Z,1.27
2023-08-08T09:01:39.903Z,1.60
2023-08-08T09:04:23.298Z,1.30
2023-08-08T09:07:03.752Z,2.20
2023-08-08T09:09:46.121Z,2.70
2023-08-08T09:12:26.308Z,1.45
2023-08-08T09:15:07.200Z,2.22
2023-08-08T09:17:49.307Z,2.85
2023-08-08T09:20:31.926Z,1.85
2023-08-08T09:23:12.241Z,3.13
2023-08-08T09:25:56.690Z,2.42
2023-08-08T09:28:39.509Z,3.60
2023-08-08T09:31:19.679Z,2.40
2023-08-08T09:34:01.709Z,1.13
2023-08-08T09:36:42.605Z,3.13
2023-08-08T09:39:22.825Z,2.60
2023-08-08T09:42:05.481Z,2.75
2023-08-08T09:44:45.583Z,2.40
2023-08-08T09:47:25.876Z,3.30
2023-08-08T09:50:12.685Z,1.80
2023-08-08T09:52:57.357Z,3.33
2023-08-08T09:55:37.772Z,2.97
2023-08-08T09:58:18.728Z,0.90
2023-08-08T10:00:58.356Z,2.47
2023-08-08T10:03:39.405Z,1.63
2023-08-08T10:06:29.902Z,2.88
2023-08-08T10:09:10.204Z,3.25
2023-08-08T10:11:51.472Z,1.63
2023-08-08T10:14:38.183Z,1.90
2023-08-08T10:17:19.906Z,3.35
2023-08-08T10:22:48.324Z,2.75
2023-08-08T10:25:32.554Z,4.18
2023-08-08T10:30:59.921Z,1.63
2023-08-08T10:33:45.417Z,3.30
2023-08-08T10:36:25.432Z,3.28
2023-08-08T10:39:05.228Z,3.05
2023-08-08T10:41:53.621Z,3.35
2023-08-08T10:44:43.799Z,2.63
2023-08-08T10:47:38.036Z,1.60
2023-08-08T10:50:26.226Z,2.50
2023-08-08T10:53:14.383Z,1.95
2023-08-08T10:56:07.740Z,2.70
2023-08-08T10:58:53.281Z,3.38
2023-08-08T11:01:33.250Z,3.28
2023-08-08T11:04:14.861Z,2.45
2023-08-08T11:06:57.713Z,5.22
2023-08-08T11:09:42.778Z,1.48
2023-08-08T11:12:28.015Z,3.80
2023-08-08T11:15:08.414Z,2.05
2023-08-08T11:17:47.823Z,5.05
2023-08-08T11:20:37.954Z,2.95
2023-08-08T11:23:26.097Z,2.03
2023-08-08T11:29:01.054Z,2.20
2023-08-08T11:31:44.721Z,3.88
2023-08-08T11:34:35.308Z,1.95
2023-08-08T11:37:16.417Z,1.50
2023-08-08T11:39:59.092Z,2.05
2023-08-08T11:42:48.016Z,4.07
2023-08-08T11:45:37.110Z,2.35
2023-08-08T11:48:26.998Z,1.75
2023-08-08T11:51:11.314Z,2.28
2023-08-08T11:54:03.462Z,2.20
2023-08-08T11:56:51.806Z,3.22
2023-08-08T11:59:37.474Z,2.53
2023-08-08T12:02:28.802Z,2.17
2023-08-08T12:05:10.846Z,2.15
2023-08-08T12:07:43.335Z,3.70
2023-08-08T12:10:32.036Z,4.70
2023-08-08T12:13:28.118Z,2.90
2023-08-08T12:15:56.966Z,2.13
2023-08-08T12:18:40.594Z,2.10
2023-08-08T12:21:20.269Z,1.48
2023-08-08T12:23:59.992Z,2.63
2023-08-08T12:26:42.416Z,2.95
2023-08-08T12:29:22.281Z,2.78
2023-08-08T12:32:03.930Z,6.55
2023-08-08T12:34:43.841Z,6.22
2023-08-08T12:37:24.936Z,6.72
2023-08-08T12:40:06.007Z,4.18
2023-08-08T12:42:44.546Z,1.45
2023-08-08T12:45:25.443Z,2.40
2023-08-08T12:48:05.569Z,3.20
2023-08-08T12:50:45.161Z,3.53
2023-08-08T12:53:24.946Z,3.20
2023-08-08T12:56:04.716Z,3.05
2023-08-08T12:58:52.145Z,2.40
2023-08-08T13:01:21.137Z,5.70
2023-08-08T13:04:18.234Z,2.38
2023-08-08T13:06:45.597Z,3.45
2023-08-08T13:09:16.064Z,1.80
2023-08-08T13:12:34.870Z,4.40
2023-08-08T13:15:21.708Z,3.42
2023-08-08T13:18:01.502Z,2.90
2023-08-08T13:20:42.083Z,3.28
2023-08-08T13:23:21.664Z,2.83
2023-08-08T13:26:02.094Z,3.33
2023-08-08T13:28:44.460Z,2.20
2023-08-08T13:31:24.103Z,3.70
2023-08-08T13:34:03.797Z,2.42
2023-08-08T13:36:44.375Z,4.97
2023-08-08T13:42:23.945Z,2.88
2023-08-08T13:45:13.644Z,3.83
2023-08-08T13:47:53.312Z,4.45
2023-08-08T13:50:32.954Z,4.10
2023-08-08T13:53:19.200Z,1.73
2023-08-08T13:56:06.022Z,2.58
2023-08-08T13:58:47.423Z,3.35
2023-08-08T14:01:27.038Z,2.25
2023-08-08T14:04:08.310Z,3.50
2023-08-08T14:06:49.441Z,5.07
2023-08-08T14:09:29.161Z,4.28
2023-08-08T14:12:14.829Z,3.17
2023-08-08T14:14:54.616Z,2.47
2023-08-08T14:17:38.606Z,2.90
2023-08-08T14:20:23.546Z,3.10
2023-08-08T14:23:03.543Z,4.13
2023-08-08T14:26:08.324Z,5.50
2023-08-08T14:28:47.910Z,3.47
2023-08-08T14:31:27.608Z,2.30
2023-08-08T14:34:07.373Z,1.70
2023-08-08T14:36:56.731Z,3.20
2023-08-08T14:39:25.903Z,2.67
2023-08-08T14:42:06.169Z,2.70
2023-08-08T14:44:48.493Z,3.83
2023-08-08T14:47:28.277Z,2.65
2023-08-08T14:50:15.155Z,3.20
2023-08-08T14:52:55.096Z,1.80
2023-08-08T14:55:34.978Z,4.07
2023-08-08T14:58:15.071Z,6.85
2023-08-08T15:00:56.152Z,4.68
2023-08-08T15:03:36.187Z,2.60
2023-08-08T15:06:16.001Z,2.63
2023-08-08T15:09:05.113Z,2.83
2023-08-08T15:11:44.063Z,3.95
2023-08-08T15:14:23.886Z,4.25
2023-08-08T15:17:03.788Z,2.08
2023-08-08T15:19:49.253Z,3.67
2023-08-08T15:22:29.207Z,4.40
2023-08-08T15:25:15.041Z,2.95
2023-08-08T15:27:54.876Z,4.07
2023-08-08T15:30:39.412Z,3.05
2023-08-08T15:33:19.846Z,5.72
2023-08-08T15:35:59.741Z,4.82
2023-08-08T15:38:39.580Z,2.30
2023-08-08T15:41:20.807Z,5.13
2023-08-08T15:44:00.744Z,2.70
2023-08-08T15:46:43.617Z,3.10
2023-08-08T15:49:23.553Z,4.00
2023-08-08T15:52:03.364Z,3.95
2023-08-08T15:54:43.074Z,4.50
2023-08-08T15:57:25.167Z,3.28
2023-08-08T16:00:07.557Z,3.88
2023-08-08T16:02:47.392Z,4.03
2023-08-08T16:05:29.344Z,4.18
2023-08-08T16:08:16.253Z,4.22
2023-08-08T16:10:54.696Z,4.25
2023-08-08T16:13:34.453Z,5.97
2023-08-08T16:16:14.138Z,4.80
2023-08-08T16:18:53.997Z,4.25
2023-08-08T16:21:36.485Z,6.00
2023-08-08T16:24:16.206Z,8.02
2023-08-08T16:26:55.855Z,3.80
2023-08-08T16:29:35.670Z,3.10
2023-08-08T16:32:15.341Z,3.53
2023-08-08T16:34:55.506Z,3.10
2023-08-08T16:37:35.110Z,2.85
2023-08-08T16:40:14.814Z,4.70
2023-08-08T16:42:54.422Z,3.90
2023-08-08T16:45:34.064Z,1.95
2023-08-08T16:48:13.715Z,3.35
2023-08-08T16:50:55.053Z,4.53
2023-08-08T16:53:34.777Z,3.40
2023-08-08T16:56:15.964Z,3.05
2023-08-08T16:58:55.611Z,3.55
2023-08-08T17:01:38.000Z,3.83
2023-08-08T17:04:18.476Z,3.47
2023-08-08T17:07:01.273Z,2.42
2023-08-08T17:09:41.970Z,3.00
2023-08-08T17:12:21.578Z,3.80
2023-08-08T17:15:01.147Z,4.65
2023-08-08T17:17:40.841Z,3.47
2023-08-08T17:20:20.458Z,6.18
2023-08-08T17:23:00.090Z,3.65
2023-08-08T17:25:39.800Z,3.70
2023-08-08T17:28:19.535Z,2.67
2023-08-08T17:31:02.424Z,4.32
2023-08-08T17:33:42.143Z,5.18
2023-08-08T17:36:22.267Z,5.93
2023-08-08T17:39:01.956Z,3.25
2023-08-08T17:41:44.237Z,3.83
2023-08-08T17:44:23.971Z,3.33
2023-08-08T17:47:04.443Z,3.92
2023-08-08T17:49:44.817Z,4.90
2023-08-08T17:52:24.872Z,4.55
2023-08-08T17:55:04.674Z,4.43
2023-08-08T17:57:44.197Z,4.90
2023-08-08T18:00:23.897Z,3.80
2023-08-08T18:03:03.828Z,4.90
2023-08-08T18:05:43.205Z,4.18
2023-08-08T18:08:23.204Z,3.63
2023-08-08T18:11:02.819Z,5.70
2023-08-08T18:13:42.457Z,3.88
2023-08-08T18:16:22.034Z,6.80
2023-08-08T18:19:02.620Z,5.50
2023-08-08T18:21:42.260Z,7.38
2023-08-08T18:24:21.911Z,4.50
2023-08-08T18:27:00.555Z,5.13
2023-08-08T18:29:40.306Z,6.60
2023-08-08T18:32:19.981Z,7.15
2023-08-08T18:34:59.597Z,3.90
2023-08-08T18:37:41.397Z,5.03
2023-08-08T18:40:22.365Z,5.05
2023-08-08T18:43:02.186Z,5.68
2023-08-08T18:45:45.000Z,5.25
2023-08-08T18:48:24.645Z,6.07
2023-08-08T18:51:04.244Z,6.47
2023-08-08T18:53:45.022Z,4.55
2023-08-08T18:56:25.060Z,4.15
2023-08-08T18:59:04.686Z,4.93
2023-08-08T19:01:44.366Z,5.20
2023-08-08T19:04:23.952Z,6.72
2023-08-08T19:07:03.882Z,6.57
2023-08-08T19:09:45.881Z,4.18
2023-08-08T19:12:25.557Z,4.57
2023-08-08T19:15:06.053Z,5.30
2023-08-08T19:17:55.435Z,5.22
2023-08-08T19:20:26.104Z,4.68
2023-08-08T19:23:12.816Z,4.95
2023-08-08T19:25:52.499Z,5.68
2023-08-08T19:28:32.202Z,6.82
2023-08-08T19:31:11.838Z,5.80
2023-08-08T19:34:04.328Z,8.57
2023-08-08T19:36:31.156Z,7.20
2023-08-08T19:39:13.884Z,5.90
2023-08-08T19:41:53.504Z,5.47
2023-08-08T19:44:33.110Z,7.32
2023-08-08T19:47:13.842Z,7.53
2023-08-08T19:49:52.737Z,8.85
2023-08-08T19:52:32.392Z,5.18
2023-08-08T19:55:12.080Z,5.55
2023-08-08T19:58:00.550Z,6.47
2023-08-08T20:00:42.572Z,5.80
2023-08-08T20:03:22.456Z,5.93
2023-08-08T20:06:02.138Z,5.30
2023-08-08T20:08:41.864Z,5.95
2023-08-08T20:11:21.461Z,6.10
2023-08-08T20:14:01.108Z,5.75
2023-08-08T20:16:40.819Z,4.40
2023-08-08T20:19:20.442Z,6.00
2023-08-08T20:22:00.020Z,5.60
2023-08-08T20:24:39.776Z,6.38
2023-08-08T20:27:19.470Z,6.38
2023-08-08T20:29:59.033Z,6.13
2023-08-08T20:32:39.069Z,6.57
2023-08-08T20:35:20.895Z,5.75
2023-08-08T20:38:01.030Z,5.93
2023-08-08T20:40:40.799Z,6.03
2023-08-08T20:43:20.562Z,7.15
2023-08-08T20:46:03.070Z,7.15
2023-08-08T20:48:43.927Z,6.00
2023-08-08T20:51:23.464Z,5.13
2023-08-08T20:54:07.128Z,6.85
2023-08-08T20:56:47.555Z,7.80
2023-08-08T20:59:28.276Z,6.68
2023-08-08T21:02:09.392Z,8.38
2023-08-08T21:04:50.438Z,8.30
2023-08-08T21:07:29.046Z,6.18
2023-08-08T21:10:14.489Z,7.07
2023-08-08T21:12:54.064Z,7.10
2023-08-08T21:15:33.680Z,7.57
2023-08-08T21:18:14.306Z,7.10
2023-08-08T21:20:53.976Z,6.78
2023-08-08T21:23:33.752Z,9.35
2023-08-08T21:26:13.740Z,7.28
2023-08-08T21:28:53.023Z,7.35
2023-08-08T21:31:35.677Z,7.78
2023-08-08T21:34:15.202Z,7.72
2023-08-08T21:36:54.822Z,6.70
2023-08-08T21:39:34.415Z,7.65
2023-08-08T21:42:13.993Z,7.53
2023-08-08T21:44:53.667Z,9.07
2023-08-08T21:47:33.335Z,6.95
2023-08-08T21:50:12.790Z,7.07
2023-08-08T21:52:52.242Z,6.68
2023-08-08T21:55:31.999Z,7.22
2023-08-08T21:58:12.316Z,6.32
2023-08-08T22:00:53.002Z,8.15
2023-08-08T22:03:32.555Z,6.43
2023-08-08T22:06:12.458Z,6.88
2023-08-08T22:08:52.097Z,5.40
2023-08-08T22:11:31.776Z,7.18
2023-08-08T22:14:11.344Z,5.30
2023-08-08T22:16:51.147Z,5.38
2023-08-08T22:19:32.643Z,6.63
2023-08-08T22:22:12.189Z,6.43
2023-08-08T22:24:51.869Z,7.93
2023-08-08T22:27:31.752Z,6.35
2023-08-08T22:30:12.580Z,5.40
2023-08-08T22:32:52.246Z,5.95
2023-08-08T22:35:31.896Z,6.15
2023-08-08T22:38:11.565Z,6.07
2023-08-08T22:40:51.141Z,5.85
2023-08-08T22:43:30.813Z,6.28
2023-08-08T22:46:10.448Z,6.40
2023-08-08T22:48:51.627Z,6.75
2023-08-08T22:51:31.529Z,8.23
2023-08-08T22:54:13.368Z,7.88
2023-08-08T22:56:53.081Z,7.40
2023-08-08T22:59:32.613Z,8.93
2023-08-08T23:02:13.020Z,7.07
2023-08-08T23:04:52.636Z,9.18
2023-08-08T23:07:32.171Z,6.68
2023-08-08T23:10:11.851Z,7.80
2023-08-08T23:12:51.553Z,8.95
2023-08-08T23:15:31.172Z,9.85
2023-08-08T23:18:10.412Z,11.02
2023-08-08T23:20:53.075Z,8.85
2023-08-08T23:23:32.713Z,9.55
2023-08-08T23:26:13.009Z,8.50
2023-08-08T23:28:52.700Z,10.02
2023-08-08T23:31:33.914Z,9.75
2023-08-08T23:34:13.626Z,12.30
2023-08-08T23:36:53.098Z,10.75
2023-08-08T23:39:32.717Z,10.60
2023-08-08T23:42:12.765Z,10.98
2023-08-08T23:44:52.445Z,12.05
2023-08-08T23:47:33.353Z,12.48
2023-08-08T23:50:13.036Z,14.30
2023-08-08T23:52:52.747Z,12.50
2023-08-08T23:55:32.299Z,17.23
2023-08-08T23:58:12.103Z,17.25
